Salten — LMFM — position and weather

sailwx.info

Track history (hours):
 
Tides and Currents Weather Stations Pressure Air Temp Water Temp Dewpoint Dewpoint Depression Visibility Wind Speed Wind Dir Waves Ship Positions

Salten

Last reported at 2016-Aug-23 15:34 UTC. Time now 2016-Aug-24 02:39 UTC.
Position N 67°24' E 014°31'.

Length 41 m; draft 2 m.

Type: High speed craft. MMSI: 259387000.

Date/timePositionNaut miles runAvg speedWind from/ knotsBaromVisibWave heightAir tempDewpointWater temp
2016-Aug-23 15:34N 67°24' E 014°31'8 7.5
2016-Aug-23 14:33N 67°17' E 014°22'0 0.0
2016-Aug-23 13:33N 67°17' E 014°22'0 0.0
2016-Aug-23 12:34N 67°17' E 014°22'0 0.0
2016-Aug-23 11:34N 67°17' E 014°22'0 0.4
2016-Aug-23 10:33N 67°17' E 014°23'1313.4
2016-Aug-23 09:34N 67°08' E 013°58'3314.1
2016-Aug-23 07:11N 66°40' E 013°11'1315.1
2016-Aug-23 06:20N 66°29' E 012°57'8 0.7
2016-Aug-22 18:28N 66°21' E 012°59'3611.8
2016-Aug-22 15:26N 66°54' E 013°31'1618.9
2016-Aug-22 14:33N 67°07' E 013°59'1413.9
2016-Aug-22 13:33N 67°17' E 014°22'0 0.0
2016-Aug-22 12:33N 67°17' E 014°22'0 0.0
2016-Aug-22 11:33N 67°17' E 014°22'0 0.0
2016-Aug-22 10:34N 67°17' E 014°22'1111.0
2016-Aug-22 09:33N 67°09' E 014°03'4615.1
2016-Aug-22 06:32N 66°31' E 013°00'11 0.7
2016-Aug-21 15:12N 66°20' E 012°52'1115.5
2016-Aug-21 14:31N 66°31' E 012°60'1313.5
2016-Aug-21 13:33N 66°42' E 013°16'1615.8
2016-Aug-21 12:32N 66°57' E 013°29'1616.2
2016-Aug-21 11:33N 67°08' E 013°58'1313.0
2016-Aug-21 10:34N 67°17' E 014°22'0 0.0
2016-Aug-21 09:34N 67°17' E 014°22'0 0.0
2016-Aug-21 08:34N 67°17' E 014°22'0 0.0
2016-Aug-21 07:33N 67°17' E 014°22'0 0.0
2016-Aug-21 06:34N 67°17' E 014°22'0 0.0
2016-Aug-21 05:33N 67°17' E 014°22'0 0.0
2016-Aug-21 04:34N 67°17' E 014°22'0 0.0
2016-Aug-21 03:33N 67°17' E 014°22'0 0.0
2016-Aug-21 02:34N 67°17' E 014°22'0 0.0
2016-Aug-21 01:34N 67°17' E 014°22'0 0.0
2016-Aug-21 00:33N 67°17' E 014°22'0 0.0
2016-Aug-20 23:34N 67°17' E 014°22'0 0.0
2016-Aug-20 22:34N 67°17' E 014°22'0 0.0
2016-Aug-20 21:34N 67°17' E 014°22'0 0.0
2016-Aug-20 20:34N 67°17' E 014°22'0 0.0
2016-Aug-20 19:33N 67°17' E 014°22'0 0.0
2016-Aug-20 18:33N 67°17' E 014°22'0 0.0
2016-Aug-20 17:34N 67°17' E 014°22'0 0.0
2016-Aug-20 16:33N 67°17' E 014°22'0 0.0
2016-Aug-20 15:34N 67°17' E 014°22'0 0.0
2016-Aug-20 14:34N 67°17' E 014°22'0 0.0
2016-Aug-20 13:34N 67°17' E 014°22'0 0.0
2016-Aug-20 12:33N 67°17' E 014°22'0 0.0
2016-Aug-20 11:34N 67°17' E 014°22'0 0.0
2016-Aug-20 10:34N 67°17' E 014°22'2 1.8
2016-Aug-20 09:33N 67°18' E 014°18'2 2.3
2016-Aug-20 08:34N 67°17' E 014°24'1212.3
2016-Aug-20 07:34N 67°29' E 014°37'2 0.2
2016-Aug-19 16:33N 67°31' E 014°39'1515.0
2016-Aug-19 15:33N 67°17' E 014°22'2417.9
2016-Aug-19 14:11N 67°40' E 014°43'1829.2
2016-Aug-19 13:34N 67°23' E 014°29'6 5.9
2016-Aug-19 12:33N 67°17' E 014°23'0 0.3
2016-Aug-19 11:33N 67°17' E 014°22'0 0.0
2016-Aug-19 10:33N 67°17' E 014°22'0 0.0
2016-Aug-19 09:33N 67°17' E 014°22'0 0.0
2016-Aug-19 08:33N 67°17' E 014°22'1916.0
2016-Aug-19 07:21N 67°35' E 014°44'12 0.8
2016-Aug-18 15:33N 67°24' E 014°31'7 7.4
2016-Aug-18 14:33N 67°17' E 014°22'0 0.0
2016-Aug-18 13:33N 67°17' E 014°22'0 0.0
2016-Aug-18 12:33N 67°17' E 014°22'0 0.0
2016-Aug-18 11:33N 67°17' E 014°22'0 0.0
2016-Aug-18 10:34N 67°17' E 014°22'6 5.8
2016-Aug-18 09:34N 67°13' E 014°11'2423.8
2016-Aug-18 08:32N 66°55' E 013°29'2913.2
2016-Aug-18 06:19N 66°29' E 012°58'8 0.7
2016-Aug-17 18:34N 66°21' E 012°57'1010.0
2016-Aug-17 17:33N 66°31' E 013°00'2611.9
2016-Aug-17 15:20N 66°54' E 013°31'1519.2
2016-Aug-17 14:34N 67°05' E 013°56'1615.6
2016-Aug-17 13:33N 67°17' E 014°22'0 0.0
2016-Aug-17 12:34N 67°17' E 014°22'0 0.0
2016-Aug-17 11:33N 67°17' E 014°22'0 0.0
2016-Aug-17 10:33N 67°17' E 014°22'0 0.0
2016-Aug-17 09:33N 67°17' E 014°22'0 0.0
2016-Aug-17 08:33N 67°17' E 014°22'8 7.6
2016-Aug-17 07:33N 67°24' E 014°26'14 0.9
2016-Aug-16 16:06N 67°38' E 014°40'1528.4
2016-Aug-16 15:34N 67°24' E 014°26'7 6.7
2016-Aug-16 14:33N 67°17' E 014°22'0 0.0
2016-Aug-16 13:33N 67°17' E 014°22'0 0.0
2016-Aug-16 12:33N 67°17' E 014°22'0 0.0
2016-Aug-16 11:33N 67°17' E 014°22'0 0.0
2016-Aug-16 10:33N 67°17' E 014°22'9 9.3
2016-Aug-16 09:34N 67°11' E 014°05'2120.4
2016-Aug-16 08:33N 66°55' E 013°29'1611.2
2016-Aug-16 07:07N 66°41' E 013°13'1017.2
2016-Aug-16 06:33N 66°33' E 012°58'13 1.1
2016-Aug-15 18:33N 66°20' E 012°59'3611.4
2016-Aug-15 15:23N 66°54' E 013°32'1518.1
2016-Aug-15 14:34N 67°05' E 013°56'1515.3
2016-Aug-15 13:34N 67°17' E 014°22'0 0.0
2016-Aug-15 12:34N 67°17' E 014°22'0 0.0
2016-Aug-15 11:34N 67°17' E 014°22'0 0.0
2016-Aug-15 10:34N 67°17' E 014°22'6 5.7
2016-Aug-15 09:33N 67°13' E 014°11'4916.2
2016-Aug-15 06:31N 66°33' E 012°58'16 1.1
2016-Aug-14 15:25N 66°17' E 012°54'1414.3
2016-Aug-14 14:28N 66°31' E 013°00'2612.4
2016-Aug-14 12:20N 66°54' E 013°31'1722.3
2016-Aug-14 11:33N 67°08' E 013°58'1313.3
2016-Aug-14 10:33N 67°17' E 014°22'0 0.0
2016-Aug-14 09:33N 67°17' E 014°22'0 0.0
2016-Aug-14 08:33N 67°17' E 014°22'0 0.0
2016-Aug-14 07:33N 67°17' E 014°22'0 0.0
2016-Aug-14 06:33N 67°17' E 014°22'0 0.0
2016-Aug-14 04:33N 67°17' E 014°22'0 0.0
2016-Aug-14 03:33N 67°17' E 014°22'0 0.0
2016-Aug-14 02:33N 67°17' E 014°22'0 0.0
2016-Aug-14 01:33N 67°17' E 014°22'0 0.0
2016-Aug-14 00:33N 67°17' E 014°22'0 0.0
2016-Aug-13 23:33N 67°17' E 014°22'0 0.0
2016-Aug-13 22:33N 67°17' E 014°22'0 0.0
2016-Aug-13 21:33N 67°17' E 014°22'0 0.0
2016-Aug-13 20:33N 67°17' E 014°22'0 0.0
2016-Aug-13 19:33N 67°17' E 014°22'0 0.0
2016-Aug-13 18:33N 67°17' E 014°22'0 0.0
2016-Aug-13 17:33N 67°17' E 014°22'0 0.0
2016-Aug-13 16:33N 67°17' E 014°22'  
Track history (hours):
 
Tides and Currents Weather Stations Pressure Air Temp Water Temp Dewpoint Dewpoint Depression Visibility Wind Speed Wind Dir Waves Ship Positions

Salten

Last reported at 2016-Aug-23 15:34 UTC. Time now 2016-Aug-24 02:39 UTC.
Position N 67°24' E 014°31'.

Length 41 m; draft 2 m.

Type: High speed craft. MMSI: 259387000.

Date/timePositionNaut miles runAvg speedWind from/ knotsBaromVisibWave heightAir tempDewpointWater temp
2016-Aug-23 15:34N 67°24' E 014°31'8 7.5
2016-Aug-23 14:33N 67°17' E 014°22'0 0.0
2016-Aug-23 13:33N 67°17' E 014°22'0 0.0
2016-Aug-23 12:34N 67°17' E 014°22'0 0.0
2016-Aug-23 11:34N 67°17' E 014°22'0 0.4
2016-Aug-23 10:33N 67°17' E 014°23'1313.4
2016-Aug-23 09:34N 67°08' E 013°58'3314.1
2016-Aug-23 07:11N 66°40' E 013°11'1315.1
2016-Aug-23 06:20N 66°29' E 012°57'8 0.7
2016-Aug-22 18:28N 66°21' E 012°59'3611.8
2016-Aug-22 15:26N 66°54' E 013°31'1618.9
2016-Aug-22 14:33N 67°07' E 013°59'1413.9
2016-Aug-22 13:33N 67°17' E 014°22'0 0.0
2016-Aug-22 12:33N 67°17' E 014°22'0 0.0
2016-Aug-22 11:33N 67°17' E 014°22'0 0.0
2016-Aug-22 10:34N 67°17' E 014°22'1111.0
2016-Aug-22 09:33N 67°09' E 014°03'4615.1
2016-Aug-22 06:32N 66°31' E 013°00'11 0.7
2016-Aug-21 15:12N 66°20' E 012°52'1115.5
2016-Aug-21 14:31N 66°31' E 012°60'1313.5
2016-Aug-21 13:33N 66°42' E 013°16'1615.8
2016-Aug-21 12:32N 66°57' E 013°29'1616.2
2016-Aug-21 11:33N 67°08' E 013°58'1313.0
2016-Aug-21 10:34N 67°17' E 014°22'0 0.0
2016-Aug-21 09:34N 67°17' E 014°22'0 0.0
2016-Aug-21 08:34N 67°17' E 014°22'0 0.0
2016-Aug-21 07:33N 67°17' E 014°22'0 0.0
2016-Aug-21 06:34N 67°17' E 014°22'0 0.0
2016-Aug-21 05:33N 67°17' E 014°22'0 0.0
2016-Aug-21 04:34N 67°17' E 014°22'0 0.0
2016-Aug-21 03:33N 67°17' E 014°22'0 0.0
2016-Aug-21 02:34N 67°17' E 014°22'0 0.0
2016-Aug-21 01:34N 67°17' E 014°22'0 0.0
2016-Aug-21 00:33N 67°17' E 014°22'0 0.0
2016-Aug-20 23:34N 67°17' E 014°22'0 0.0
2016-Aug-20 22:34N 67°17' E 014°22'0 0.0
2016-Aug-20 21:34N 67°17' E 014°22'0 0.0
2016-Aug-20 20:34N 67°17' E 014°22'0 0.0
2016-Aug-20 19:33N 67°17' E 014°22'0 0.0
2016-Aug-20 18:33N 67°17' E 014°22'0 0.0
2016-Aug-20 17:34N 67°17' E 014°22'0 0.0
2016-Aug-20 16:33N 67°17' E 014°22'0 0.0
2016-Aug-20 15:34N 67°17' E 014°22'0 0.0
2016-Aug-20 14:34N 67°17' E 014°22'0 0.0
2016-Aug-20 13:34N 67°17' E 014°22'0 0.0
2016-Aug-20 12:33N 67°17' E 014°22'0 0.0
2016-Aug-20 11:34N 67°17' E 014°22'0 0.0
2016-Aug-20 10:34N 67°17' E 014°22'2 1.8
2016-Aug-20 09:33N 67°18' E 014°18'2 2.3
2016-Aug-20 08:34N 67°17' E 014°24'1212.3
2016-Aug-20 07:34N 67°29' E 014°37'2 0.2
2016-Aug-19 16:33N 67°31' E 014°39'1515.0
2016-Aug-19 15:33N 67°17' E 014°22'2417.9
2016-Aug-19 14:11N 67°40' E 014°43'1829.2
2016-Aug-19 13:34N 67°23' E 014°29'6 5.9
2016-Aug-19 12:33N 67°17' E 014°23'0 0.3
2016-Aug-19 11:33N 67°17' E 014°22'0 0.0
2016-Aug-19 10:33N 67°17' E 014°22'0 0.0
2016-Aug-19 09:33N 67°17' E 014°22'0 0.0
2016-Aug-19 08:33N 67°17' E 014°22'1916.0
2016-Aug-19 07:21N 67°35' E 014°44'12 0.8
2016-Aug-18 15:33N 67°24' E 014°31'7 7.4
2016-Aug-18 14:33N 67°17' E 014°22'0 0.0
2016-Aug-18 13:33N 67°17' E 014°22'0 0.0
2016-Aug-18 12:33N 67°17' E 014°22'0 0.0
2016-Aug-18 11:33N 67°17' E 014°22'0 0.0
2016-Aug-18 10:34N 67°17' E 014°22'6 5.8
2016-Aug-18 09:34N 67°13' E 014°11'2423.8
2016-Aug-18 08:32N 66°55' E 013°29'2913.2
2016-Aug-18 06:19N 66°29' E 012°58'8 0.7
2016-Aug-17 18:34N 66°21' E 012°57'1010.0
2016-Aug-17 17:33N 66°31' E 013°00'2611.9
2016-Aug-17 15:20N 66°54' E 013°31'1519.2
2016-Aug-17 14:34N 67°05' E 013°56'1615.6
2016-Aug-17 13:33N 67°17' E 014°22'0 0.0
2016-Aug-17 12:34N 67°17' E 014°22'0 0.0
2016-Aug-17 11:33N 67°17' E 014°22'0 0.0
2016-Aug-17 10:33N 67°17' E 014°22'0 0.0
2016-Aug-17 09:33N 67°17' E 014°22'0 0.0
2016-Aug-17 08:33N 67°17' E 014°22'8 7.6
2016-Aug-17 07:33N 67°24' E 014°26'14 0.9
2016-Aug-16 16:06N 67°38' E 014°40'1528.4
2016-Aug-16 15:34N 67°24' E 014°26'7 6.7
2016-Aug-16 14:33N 67°17' E 014°22'0 0.0
2016-Aug-16 13:33N 67°17' E 014°22'0 0.0
2016-Aug-16 12:33N 67°17' E 014°22'0 0.0
2016-Aug-16 11:33N 67°17' E 014°22'0 0.0
2016-Aug-16 10:33N 67°17' E 014°22'9 9.3
2016-Aug-16 09:34N 67°11' E 014°05'2120.4
2016-Aug-16 08:33N 66°55' E 013°29'1611.2
2016-Aug-16 07:07N 66°41' E 013°13'1017.2
2016-Aug-16 06:33N 66°33' E 012°58'13 1.1
2016-Aug-15 18:33N 66°20' E 012°59'3611.4
2016-Aug-15 15:23N 66°54' E 013°32'1518.1
2016-Aug-15 14:34N 67°05' E 013°56'1515.3
2016-Aug-15 13:34N 67°17' E 014°22'0 0.0
2016-Aug-15 12:34N 67°17' E 014°22'0 0.0
2016-Aug-15 11:34N 67°17' E 014°22'0 0.0
2016-Aug-15 10:34N 67°17' E 014°22'6 5.7
2016-Aug-15 09:33N 67°13' E 014°11'4916.2
2016-Aug-15 06:31N 66°33' E 012°58'16 1.1
2016-Aug-14 15:25N 66°17' E 012°54'1414.3
2016-Aug-14 14:28N 66°31' E 013°00'2612.4
2016-Aug-14 12:20N 66°54' E 013°31'1722.3
2016-Aug-14 11:33N 67°08' E 013°58'1313.3
2016-Aug-14 10:33N 67°17' E 014°22'0 0.0
2016-Aug-14 09:33N 67°17' E 014°22'0 0.0
2016-Aug-14 08:33N 67°17' E 014°22'0 0.0
2016-Aug-14 07:33N 67°17' E 014°22'0 0.0
2016-Aug-14 06:33N 67°17' E 014°22'0 0.0
2016-Aug-14 04:33N 67°17' E 014°22'0 0.0
2016-Aug-14 03:33N 67°17' E 014°22'0 0.0
2016-Aug-14 02:33N 67°17' E 014°22'0 0.0
2016-Aug-14 01:33N 67°17' E 014°22'0 0.0
2016-Aug-14 00:33N 67°17' E 014°22'0 0.0
2016-Aug-13 23:33N 67°17' E 014°22'0 0.0
2016-Aug-13 22:33N 67°17' E 014°22'0 0.0
2016-Aug-13 21:33N 67°17' E 014°22'0 0.0
2016-Aug-13 20:33N 67°17' E 014°22'0 0.0
2016-Aug-13 19:33N 67°17' E 014°22'0 0.0
2016-Aug-13 18:33N 67°17' E 014°22'0 0.0
2016-Aug-13 17:33N 67°17' E 014°22'0 0.0
2016-Aug-13 16:33N 67°17' E 014°22'  

Dump ship's entire track history